Time;durP1;ratioP1;P1;durP2;ratioP2;P2;SDS_P1;SDS_P2;PMS_P1;PMS_P2;Temp;Humidity;BMP_temperature;BMP_pressure;BME280_temperature;BME280_humidity;BME280_pressure;Samples;Min_cycle;Max_cycle;Signal;HPM_P1;HPM_P2
2021/12/18 00:01:24;;;;;;;12.20;6.80;;;;;;;8.08;83.31;103952.25;5118439;27;20039;-68
2021/12/18 00:03:50;;;;;;;12.25;6.55;;;;;;;8.06;83.41;103948.69;5137423;27;20054;-68
2021/12/18 00:06:16;;;;;;;11.05;6.60;;;;;;;8.05;83.21;103952.13;5129280;27;20071;-68
2021/12/18 00:08:42;;;;;;;11.68;7.05;;;;;;;8.03;83.45;103944.22;5137909;27;20031;-67
2021/12/18 00:11:08;;;;;;;15.40;6.93;;;;;;;8.04;83.48;103947.72;5137320;27;20035;-67
2021/12/18 00:13:34;;;;;;;16.15;7.20;;;;;;;8.03;83.40;103941.59;5137085;27;20751;-68
2021/12/18 00:16:00;;;;;;;12.02;6.53;;;;;;;8.04;83.57;103942.47;5136108;27;20065;-68
2021/12/18 00:18:25;;;;;;;12.13;6.70;;;;;;;8.03;83.57;103930.22;5137131;27;20051;-67
2021/12/18 00:20:51;;;;;;;11.63;6.05;;;;;;;8.02;83.72;103936.31;5134640;27;20039;-68
2021/12/18 00:23:17;;;;;;;11.30;5.63;;;;;;;8.00;83.55;103935.38;5137606;27;20043;-69
2021/12/18 00:25:44;;;;;;;13.25;6.38;;;;;;;7.98;83.69;103934.41;5136734;27;20043;-69
2021/12/18 00:28:10;;;;;;;12.13;6.32;;;;;;;7.98;83.86;103935.34;5135716;27;20477;-68
2021/12/18 00:30:37;;;;;;;11.90;6.32;;;;;;;7.97;83.83;103937.88;5135420;27;20043;-69
2021/12/18 00:33:06;;;;;;;11.32;6.25;;;;;;;7.97;83.77;103927.38;5133167;27;20132;-70
2021/12/18 00:35:35;;;;;;;12.75;6.43;;;;;;;7.95;83.91;103929.97;5136189;27;20066;-69
2021/12/18 00:38:04;;;;;;;10.57;6.18;;;;;;;7.95;83.90;103932.59;5137105;27;20755;-69
2021/12/18 00:40:42;;;;;;;12.27;6.30;;;;;;;7.97;84.14;103928.28;5134617;27;20039;-68
2021/12/18 00:43:22;;;;;;;12.20;6.25;;;;;;;7.97;83.92;103924.75;5136496;27;20086;-68
2021/12/18 00:45:48;;;;;;;13.60;6.95;;;;;;;7.97;84.01;103925.66;5136662;27;20381;-68
2021/12/18 00:48:13;;;;;;;12.73;7.10;;;;;;;7.96;84.13;103930.84;5135070;27;20044;-68
2021/12/18 00:50:39;;;;;;;12.43;6.75;;;;;;;7.97;84.16;103928.28;5129836;27;40466;-68
2021/12/18 00:53:04;;;;;;;12.50;6.93;;;;;;;7.96;84.11;103926.50;5135539;27;20066;-68
2021/12/18 00:55:30;;;;;;;11.55;7.25;;;;;;;7.95;84.03;103919.47;5117173;27;44179;-68
2021/12/18 00:57:55;;;;;;;12.27;7.38;;;;;;;7.95;84.11;103922.09;5136994;27;20044;-67
2021/12/18 01:00:24;;;;;;;14.73;7.50;;;;;;;7.95;84.11;103929.06;5134083;27;20126;-68
2021/12/18 01:02:59;;;;;;;13.52;7.88;;;;;;;7.94;84.21;103922.94;5134883;27;20050;-68
2021/12/18 01:05:27;;;;;;;13.10;7.82;;;;;;;7.95;84.07;103927.34;5136343;27;20081;-67
2021/12/18 01:07:57;;;;;;;14.43;7.32;;;;;;;7.95;84.12;103927.34;5136302;27;20027;-68
2021/12/18 01:10:40;;;;;;;14.85;8.05;;;;;;;7.95;84.02;103919.47;5132812;27;20043;-65
2021/12/18 01:13:09;;;;;;;14.07;7.68;;;;;;;7.93;83.94;103923.78;5134892;27;20092;-66
2021/12/18 01:15:40;;;;;;;14.32;7.30;;;;;;;7.92;84.20;103925.53;5130768;27;20031;-66
2021/12/18 01:23:34;;;;;;;13.20;6.65;;;;;;;7.90;83.86;103934.19;5134152;27;20052;-66
2021/12/18 01:26:04;;;;;;;12.15;6.97;;;;;;;7.89;83.89;103930.69;5135737;27;20119;-67
2021/12/18 01:28:30;;;;;;;12.07;6.93;;;;;;;7.88;83.89;103925.38;5134207;27;20032;-67
2021/12/18 01:30:56;;;;;;;14.27;7.22;;;;;;;7.86;84.00;103921.81;5135213;27;20048;-65
2021/12/18 01:33:21;;;;;;;15.10;7.68;;;;;;;7.85;83.90;103926.16;5135275;27;20043;-66
2021/12/18 01:35:48;;;;;;;12.60;7.22;;;;;;;7.83;84.05;103919.09;5133049;27;20070;-66
2021/12/18 01:38:15;;;;;;;13.18;6.82;;;;;;;7.82;83.91;103915.59;5136032;27;20036;-65
2021/12/18 01:40:41;;;;;;;12.35;6.95;;;;;;;7.81;84.24;103924.31;5131945;27;20066;-66
2021/12/18 01:54:07;;;;;;;14.98;7.20;;;;;;;7.78;84.26;103932.97;5095764;27;20059;-66
2021/12/18 01:56:33;;;;;;;14.25;7.93;;;;;;;7.80;84.47;103937.38;5133839;27;20043;-67
2021/12/18 01:58:58;;;;;;;13.40;7.75;;;;;;;7.80;84.41;103937.38;5136315;27;20035;-68
2021/12/18 02:01:24;;;;;;;14.88;7.57;;;;;;;7.77;84.57;103935.53;5132899;27;20036;-67
2021/12/18 02:03:50;;;;;;;17.17;7.32;;;;;;;7.79;84.46;103931.25;5135658;27;20036;-68
2021/12/18 02:06:15;;;;;;;13.27;6.95;;;;;;;7.80;84.47;103929.50;5134901;27;20040;-67
2021/12/18 02:08:44;;;;;;;14.50;7.95;;;;;;;7.80;84.65;103932.13;5135061;27;20040;-67
2021/12/18 02:19:31;;;;;;;12.48;7.63;;;;;;;7.77;84.48;103935.53;5121831;27;20135;-68
2021/12/18 02:20:11;;;;;;;11.52;6.32;;;;;;;7.73;84.51;103934.56;5134386;27;20051;-66
2021/12/18 02:22:36;;;;;;;10.18;5.45;;;;;;;7.72;84.42;103932.78;5133654;27;20123;-68
2021/12/18 02:25:03;;;;;;;9.93;5.38;;;;;;;7.73;84.29;103923.19;5115529;27;40738;-68
2021/12/18 02:27:30;;;;;;;7.30;4.50;;;;;;;7.71;84.35;103930.13;5135074;27;20059;-68
2021/12/18 02:29:55;;;;;;;8.48;4.20;;;;;;;7.69;84.16;103930.06;5132670;27;20065;-66
2021/12/18 02:32:22;;;;;;;7.35;4.57;;;;;;;7.69;84.00;103930.06;5131949;27;20069;-68
2021/12/18 02:34:54;;;;;;;8.23;4.88;;;;;;;7.69;84.02;103926.53;5133551;27;20036;-66
2021/12/18 02:37:27;;;;;;;8.02;5.00;;;;;;;7.67;84.06;103913.38;5134111;27;20036;-66
2021/12/18 02:42:22;;;;;;;7.53;4.80;;;;;;;7.67;84.09;103910.75;5138944;27;20036;-65
2021/12/18 02:44:50;;;;;;;7.95;5.05;;;;;;;7.70;84.29;103918.69;5120263;27;20124;-66
2021/12/18 02:47:16;;;;;;;7.50;5.03;;;;;;;7.72;84.38;103900.38;5134049;27;20031;-65
2021/12/18 02:49:50;;;;;;;9.18;5.38;;;;;;;7.75;84.34;103911.88;5137488;27;20040;-67
2021/12/18 02:52:27;;;;;;;7.22;4.40;;;;;;;7.77;83.97;103904.94;5138050;27;20154;-66
2021/12/18 02:54:53;;;;;;;7.70;4.50;;;;;;;7.76;84.04;103911.03;5137275;27;20040;-67
2021/12/18 02:57:19;;;;;;;6.93;4.20;;;;;;;7.77;83.80;103919.78;5137221;27;20032;-67
2021/12/18 02:59:51;;;;;;;6.97;4.70;;;;;;;7.78;83.93;103906.69;5138365;27;20032;-67
2021/12/18 03:02:19;;;;;;;8.70;4.93;;;;;;;7.80;83.85;103904.13;5132610;27;20032;-66
2021/12/18 03:04:50;;;;;;;8.38;4.93;;;;;;;7.81;83.95;103891.88;5138125;27;20035;-68
2021/12/18 03:07:17;;;;;;;7.95;4.75;;;;;;;7.81;83.95;103891.88;5138024;27;20054;-67
2021/12/18 03:25:55;;;;;;;7.18;4.20;;;;;;;7.86;83.84;103887.66;5136397;27;20472;-69
2021/12/18 03:28:21;;;;;;;7.93;4.40;;;;;;;7.85;83.61;103885.88;5137564;27;20793;-68
2021/12/18 03:30:46;;;;;;;8.70;5.40;;;;;;;7.85;83.75;103883.25;5136448;27;31221;-69
2021/12/18 03:33:12;;;;;;;7.55;4.78;;;;;;;7.84;83.81;103882.34;5139051;27;20504;-68
2021/12/18 03:35:37;;;;;;;8.27;4.53;;;;;;;7.85;83.83;103891.13;5136343;27;20841;-69
2021/12/18 03:38:03;;;;;;;7.55;4.47;;;;;;;7.85;83.84;103899.03;5136715;27;20054;-70
2021/12/18 03:40:29;;;;;;;10.73;4.90;;;;;;;7.84;83.75;103891.97;5137752;27;20043;-69
2021/12/18 03:42:55;;;;;;;7.43;4.68;;;;;;;7.84;83.71;103889.34;5137105;27;20040;-69
2021/12/18 03:45:22;;;;;;;8.93;5.20;;;;;;;7.82;83.79;103883.16;5137962;27;20701;-69
2021/12/18 03:47:51;;;;;;;9.73;5.22;;;;;;;7.81;83.83;103887.53;5137131;27;20472;-70
2021/12/18 03:50:17;;;;;;;8.57;5.05;;;;;;;7.80;84.00;103893.63;5127884;27;20043;-69
2021/12/18 03:52:43;;;;;;;8.98;4.85;;;;;;;7.83;84.08;103883.22;5136797;27;20508;-69
2021/12/18 03:55:08;;;;;;;7.47;5.00;;;;;;;7.85;84.14;103893.75;5131493;27;20090;-69
2021/12/18 03:57:34;;;;;;;8.77;5.20;;;;;;;7.86;84.03;103887.66;5136209;27;20146;-69
2021/12/18 03:59:59;;;;;;;10.52;5.53;;;;;;;7.85;84.07;103886.75;5137099;27;20050;-68
2021/12/18 04:02:25;;;;;;;7.70;5.10;;;;;;;7.85;84.08;103893.75;5134874;27;42585;-68
2021/12/18 04:04:51;;;;;;;7.60;4.88;;;;;;;7.85;83.65;103883.25;5136855;27;20055;-68
2021/12/18 04:07:17;;;;;;;7.25;4.45;;;;;;;7.82;83.64;103891.03;5136326;27;20035;-67
2021/12/18 04:09:42;;;;;;;7.47;4.75;;;;;;;7.76;83.60;103884.78;5125114;27;20043;-68
2021/12/18 04:12:09;;;;;;;7.22;4.50;;;;;;;7.75;83.51;103895.22;5116489;27;20165;-66
2021/12/18 04:14:34;;;;;;;8.00;4.47;;;;;;;7.71;83.68;103894.22;5132261;27;20043;-67
2021/12/18 04:17:01;;;;;;;7.60;4.57;;;;;;;7.67;83.80;103888.84;5136350;27;20036;-68
2021/12/18 04:19:26;;;;;;;7.15;4.40;;;;;;;7.65;83.94;103885.25;5136794;27;20081;-68
2021/12/18 04:21:52;;;;;;;7.28;4.50;;;;;;;7.64;84.05;103887.00;5136103;27;20031;-67
2021/12/18 04:24:18;;;;;;;8.23;4.93;;;;;;;7.64;84.28;103879.13;5137969;27;20035;-68
2021/12/18 04:26:43;;;;;;;8.95;4.72;;;;;;;7.65;84.20;103885.25;5135694;27;20055;-71
2021/12/18 04:29:09;;;;;;;10.77;5.10;;;;;;;7.66;84.33;103894.94;5136388;27;20046;-69
2021/12/18 04:31:38;;;;;;;8.10;4.88;;;;;;;7.67;84.48;103887.13;5135238;27;20047;-69
2021/12/18 04:34:04;;;;;;;7.97;4.70;;;;;;;7.70;84.73;103892.44;5137492;27;20474;-69
2021/12/18 04:36:30;;;;;;;9.40;4.88;;;;;;;7.73;84.45;103896.91;5114269;27;20040;-68
2021/12/18 04:38:56;;;;;;;9.57;5.18;;;;;;;7.73;84.44;103892.53;5137023;27;20154;-69
2021/12/18 04:41:36;;;;;;;8.77;5.18;;;;;;;7.74;84.49;103890.78;5114560;27;20104;-70
2021/12/18 04:44:03;;;;;;;9.18;5.43;;;;;;;7.74;84.33;103891.72;5135824;27;20040;-70
2021/12/18 04:46:29;;;;;;;9.43;5.22;;;;;;;7.77;84.23;103893.53;5134780;27;20046;-66
2021/12/18 04:48:54;;;;;;;8.07;5.07;;;;;;;7.75;83.86;103897.84;5134668;27;20083;-66
2021/12/18 04:51:20;;;;;;;9.27;5.32;;;;;;;7.72;84.21;103895.13;5135407;27;20040;-66
2021/12/18 04:53:46;;;;;;;9.13;5.22;;;;;;;7.71;84.14;103891.59;5131403;27;31054;-67
2021/12/18 04:56:11;;;;;;;10.32;5.50;;;;;;;7.70;84.41;103894.19;5135233;27;20039;-67
2021/12/18 04:58:37;;;;;;;10.88;5.22;;;;;;;7.70;84.45;103895.06;5135011;27;20378;-67
2021/12/18 05:01:03;;;;;;;9.82;5.40;;;;;;;7.72;84.42;103895.13;5135564;27;20066;-66
2021/12/18 05:03:28;;;;;;;10.75;5.68;;;;;;;7.72;84.44;103896.00;5134583;27;20047;-69
2021/12/18 05:05:54;;;;;;;10.95;5.70;;;;;;;7.73;84.41;103899.53;5130672;27;20036;-69
2021/12/18 05:08:20;;;;;;;9.35;5.78;;;;;;;7.73;84.47;103902.19;5118390;27;20039;-69
2021/12/18 05:10:46;;;;;;;9.43;5.45;;;;;;;7.72;84.45;103903.91;5136166;27;20023;-69
2021/12/18 05:13:12;;;;;;;8.40;5.10;;;;;;;7.70;84.46;103904.69;5127198;27;20059;-66
2021/12/18 05:15:37;;;;;;;8.68;5.28;;;;;;;7.68;84.40;103903.75;5132986;27;38578;-67
2021/12/18 05:18:03;;;;;;;8.25;5.07;;;;;;;7.64;84.64;103905.41;5134505;27;20481;-67
2021/12/18 05:20:28;;;;;;;8.05;5.22;;;;;;;7.66;84.58;103910.69;5135950;27;20046;-67
2021/12/18 05:22:54;;;;;;;7.15;4.35;;;;;;;7.68;84.72;103912.50;5132965;27;20090;-67
2021/12/18 05:25:20;;;;;;;9.10;4.70;;;;;;;7.68;84.79;103904.63;5136724;27;20061;-67
2021/12/18 05:27:45;;;;;;;8.63;4.57;;;;;;;7.71;84.92;103906.47;5134312;27;24411;-69
2021/12/18 05:30:11;;;;;;;7.45;4.05;;;;;;;7.71;84.73;103909.97;5135499;27;20047;-67
2021/12/18 05:32:37;;;;;;;8.18;4.28;;;;;;;7.73;85.05;103915.31;5135554;27;20120;-66
2021/12/18 05:35:06;;;;;;;8.07;4.60;;;;;;;7.73;84.73;103910.94;5134871;27;20503;-66
2021/12/18 05:37:44;;;;;;;8.63;5.32;;;;;;;7.73;84.77;103916.19;5134211;27;20035;-65
2021/12/18 05:40:16;;;;;;;8.68;4.60;;;;;;;7.71;84.61;103909.97;5134170;27;20151;-65
2021/12/18 05:42:42;;;;;;;9.90;5.55;;;;;;;7.69;84.57;103918.66;5133369;27;20092;-66
2021/12/18 05:45:08;;;;;;;10.98;5.45;;;;;;;7.67;84.71;103908.13;5134377;27;20044;-66
2021/12/18 05:47:34;;;;;;;12.27;5.90;;;;;;;7.66;84.78;103906.34;5132196;27;20043;-66
2021/12/18 05:50:00;;;;;;;12.82;6.40;;;;;;;7.64;84.65;103908.03;5126708;27;20035;-69
2021/12/18 05:52:26;;;;;;;13.10;6.28;;;;;;;7.65;84.90;103903.66;5130819;27;20035;-66
2021/12/18 05:54:51;;;;;;;11.70;5.80;;;;;;;7.63;84.80;103907.97;5134628;27;20043;-68
2021/12/18 05:57:17;;;;;;;12.52;6.57;;;;;;;7.61;84.82;103900.03;5114506;28;20036;-69
2021/12/18 05:59:44;;;;;;;12.63;6.53;;;;;;;7.62;84.95;103907.06;5127363;27;20038;-69
2021/12/18 06:02:10;;;;;;;13.23;6.55;;;;;;;7.63;85.01;103905.34;5131764;27;20048;-66
2021/12/18 06:04:35;;;;;;;14.30;6.57;;;;;;;7.62;85.30;103904.44;5133726;27;20051;-70
2021/12/18 06:07:06;;;;;;;14.52;6.40;;;;;;;7.65;84.92;103901.03;5134940;27;20035;-66
2021/12/18 06:09:36;;;;;;;13.07;6.90;;;;;;;7.66;85.30;103901.09;5134258;27;20048;-65
2021/12/18 06:12:03;;;;;;;15.07;6.90;;;;;;;7.66;85.30;103903.72;5129776;27;20031;-67
2021/12/18 06:14:29;;;;;;;14.02;7.25;;;;;;;7.69;85.35;103898.53;5135593;27;20055;-66
2021/12/18 06:16:54;;;;;;;15.75;7.22;;;;;;;7.69;85.36;103901.16;5137808;27;20108;-65
2021/12/18 06:19:20;;;;;;;14.25;6.38;;;;;;;7.70;85.61;103895.06;5136269;27;20039;-69
2021/12/18 06:21:46;;;;;;;13.48;7.20;;;;;;;7.70;85.12;103897.69;5134893;27;20036;-66
2021/12/18 06:24:12;;;;;;;10.80;5.72;;;;;;;7.71;85.24;103895.97;5121470;27;20039;-65
2021/12/18 06:26:38;;;;;;;11.60;6.00;;;;;;;7.72;85.18;103897.75;5138003;27;20039;-67
2021/12/18 06:29:03;;;;;;;10.50;5.68;;;;;;;7.70;85.18;103895.06;5137593;27;20781;-65
2021/12/18 06:31:31;;;;;;;11.38;5.47;;;;;;;7.71;84.93;103899.47;5135098;27;33639;-67
2021/12/18 06:33:57;;;;;;;7.20;4.07;;;;;;;7.71;85.12;103896.84;5136345;27;20043;-66
2021/12/18 06:36:22;;;;;;;8.02;4.10;;;;;;;7.71;84.87;103902.09;5136552;27;20036;-65
2021/12/18 06:38:47;;;;;;;8.93;4.15;;;;;;;7.69;84.86;103897.66;5132466;27;20546;-68
2021/12/18 06:41:13;;;;;;;9.13;4.20;;;;;;;7.68;85.00;103896.75;5131920;27;44259;-66
2021/12/18 06:43:38;;;;;;;9.25;4.43;;;;;;;7.68;85.01;103898.50;5138039;27;20040;-67
2021/12/18 06:46:06;;;;;;;8.82;4.45;;;;;;;7.66;84.95;103895.84;5137645;27;20123;-67
2021/12/18 06:48:32;;;;;;;9.40;4.80;;;;;;;7.67;85.06;103900.25;5135200;27;20146;-66
2021/12/18 06:50:58;;;;;;;10.40;5.00;;;;;;;7.67;85.16;103897.63;5137805;27;20118;-68
2021/12/18 06:53:23;;;;;;;10.77;5.10;;;;;;;7.67;85.24;103894.09;5134365;27;44562;-66
2021/12/18 06:55:49;;;;;;;11.68;5.75;;;;;;;7.66;85.13;103895.84;5125313;27;20121;-70
2021/12/18 06:58:14;;;;;;;11.13;5.38;;;;;;;7.66;85.62;103893.22;5112549;27;20079;-66
2021/12/18 07:00:41;;;;;;;13.50;5.20;;;;;;;7.66;85.24;103895.84;5109110;27;20127;-67
2021/12/18 07:03:06;;;;;;;9.85;5.18;;;;;;;7.67;85.38;103897.63;5132735;27;20074;-66
2021/12/18 07:05:32;;;;;;;9.65;4.80;;;;;;;7.68;85.24;103902.00;5135247;27;20059;-66
2021/12/18 07:07:57;;;;;;;10.40;5.05;;;;;;;7.66;85.03;103894.94;5100759;27;20062;-66
2021/12/18 07:10:23;;;;;;;9.80;4.53;;;;;;;7.65;85.02;103904.56;5134418;27;28549;-67
2021/12/18 07:12:49;;;;;;;17.02;5.53;;;;;;;7.64;85.26;103908.03;5134761;27;20804;-64
2021/12/18 07:15:15;;;;;;;11.43;5.43;;;;;;;7.61;85.28;103914.06;5133058;27;20047;-66
2021/12/18 07:17:41;;;;;;;12.93;5.10;;;;;;;7.62;85.38;103917.59;5130458;27;20822;-67
2021/12/18 07:20:08;;;;;;;11.30;4.75;;;;;;;7.64;85.34;103917.63;5136556;27;20039;-67
2021/12/18 07:22:35;;;;;;;12.52;5.82;;;;;;;7.61;85.10;103916.72;5133354;27;20036;-63
2021/12/18 07:25:00;;;;;;;15.30;5.45;;;;;;;7.59;85.27;103905.25;5116799;27;20039;-63
2021/12/18 07:27:26;;;;;;;12.20;5.70;;;;;;;7.59;85.15;103905.25;5134320;27;20044;-63
2021/12/18 07:29:51;;;;;;;14.73;6.00;;;;;;;7.57;85.02;103906.06;5133831;27;20070;-63
2021/12/18 07:32:17;;;;;;;18.67;5.70;;;;;;;7.53;85.02;103912.91;5131252;27;20048;-67
2021/12/18 07:34:43;;;;;;;16.17;6.20;;;;;;;7.49;85.00;103907.53;5132857;27;20151;-67
2021/12/18 07:37:08;;;;;;;13.40;5.13;;;;;;;7.44;85.50;103912.63;5135028;27;20039;-64
2021/12/18 07:39:34;;;;;;;14.25;5.68;;;;;;;7.49;85.96;103918.94;5133997;27;20036;-68
2021/12/18 07:41:59;;;;;;;11.98;5.55;;;;;;;7.56;86.11;103913.03;5135268;27;27247;-66
2021/12/18 07:44:25;;;;;;;12.30;5.35;;;;;;;7.62;86.28;103922.84;5130943;27;20044;-68
2021/12/18 07:46:50;;;;;;;14.38;4.93;;;;;;;7.65;85.37;103920.31;5130239;27;43159;-64
2021/12/18 07:49:16;;;;;;;12.70;5.43;;;;;;;7.55;84.92;103913.88;5126833;27;20048;-65
2021/12/18 07:51:43;;;;;;;13.30;5.03;;;;;;;7.48;85.03;103917.16;5129573;27;20081;-66
2021/12/18 07:54:09;;;;;;;11.60;4.80;;;;;;;7.43;85.20;103918.72;5131730;27;20097;-68
2021/12/18 07:56:35;;;;;;;12.38;4.60;;;;;;;7.37;85.21;103919.44;5132543;27;20061;-67
2021/12/18 07:59:03;;;;;;;12.13;4.95;;;;;;;7.32;85.24;103915.75;5128313;27;20066;-66
2021/12/18 08:01:29;;;;;;;15.15;5.22;;;;;;;7.30;85.70;103923.59;5134070;27;20488;-65
2021/12/18 08:03:55;;;;;;;8.43;4.07;;;;;;;7.33;85.80;103914.00;5135163;27;20123;-68
2021/12/18 08:06:21;;;;;;;7.32;3.65;;;;;;;7.34;85.45;103913.19;5134100;27;20047;-67
2021/12/18 08:08:48;;;;;;;9.38;3.88;;;;;;;7.37;85.65;103915.91;5147202;27;20078;-67
2021/12/18 08:11:15;;;;;;;8.05;3.78;;;;;;;7.39;85.65;103919.47;5141832;27;20086;-66
2021/12/18 08:13:42;;;;;;;7.32;3.72;;;;;;;7.42;85.64;103923.09;5135461;27;20039;-66
2021/12/18 08:16:07;;;;;;;11.10;4.50;;;;;;;7.43;85.36;103914.38;5148074;27;20043;-67
2021/12/18 08:18:33;;;;;;;8.07;3.42;;;;;;;7.43;85.36;103921.34;5138247;27;20032;-67
2021/12/18 08:20:58;;;;;;;8.95;3.60;;;;;;;7.41;84.94;103920.44;5134654;27;20160;-65
2021/12/18 08:23:24;;;;;;;5.88;2.60;;;;;;;7.37;84.56;103921.16;5135482;27;20043;-65
2021/12/18 08:25:50;;;;;;;6.18;2.97;;;;;;;7.31;84.50;103921.84;5130002;27;20080;-66
2021/12/18 08:28:16;;;;;;;5.38;2.13;;;;;;;7.30;84.29;103926.22;5133095;27;20090;-66
2021/12/18 08:30:42;;;;;;;4.68;2.22;;;;;;;7.27;84.25;103925.22;5133852;27;20043;-66
2021/12/18 08:33:09;;;;;;;4.93;2.47;;;;;;;7.25;83.93;103924.28;5108133;27;20043;-68
2021/12/18 08:35:35;;;;;;;4.90;2.20;;;;;;;7.22;84.46;103924.16;5134561;27;20082;-68
2021/12/18 08:38:03;;;;;;;4.82;2.55;;;;;;;7.23;84.48;103916.34;5110702;27;20511;-66
2021/12/18 08:40:31;;;;;;;7.43;2.58;;;;;;;7.25;84.43;103908.53;5133003;27;20123;-67
2021/12/18 08:42:56;;;;;;;5.85;2.65;;;;;;;7.26;84.43;103913.81;5127021;27;20051;-68
2021/12/18 08:45:23;;;;;;;5.53;2.20;;;;;;;7.26;84.39;103913.81;5132630;27;20036;-68
2021/12/18 08:47:49;;;;;;;5.28;2.50;;;;;;;7.27;84.37;103918.25;5132615;27;20039;-67
2021/12/18 08:50:17;;;;;;;5.53;2.40;;;;;;;7.26;84.31;103919.06;5132254;27;20039;-69
2021/12/18 08:52:49;;;;;;;5.13;2.55;;;;;;;7.27;84.43;103918.25;5134396;27;20395;-65
2021/12/18 08:55:17;;;;;;;5.10;2.35;;;;;;;7.29;84.37;103913.03;5133912;27;20066;-68
2021/12/18 08:57:43;;;;;;;4.80;2.63;;;;;;;7.32;84.47;103917.50;5115819;27;20055;-68
2021/12/18 09:00:13;;;;;;;3.65;1.80;;;;;;;7.36;84.53;103920.28;5133249;27;20069;-67
2021/12/18 09:02:40;;;;;;;5.13;2.47;;;;;;;7.41;84.11;103921.31;5134298;27;20050;-67
2021/12/18 09:05:09;;;;;;;5.88;2.25;;;;;;;7.44;83.90;103916.16;5115189;27;20118;-67
2021/12/18 09:07:34;;;;;;;5.97;2.70;;;;;;;7.46;83.80;103914.50;5132508;27;20035;-66
2021/12/18 09:10:01;;;;;;;4.97;2.38;;;;;;;7.49;83.96;103910.16;5134219;27;20044;-67
2021/12/18 09:12:27;;;;;;;5.13;2.50;;;;;;;7.49;83.63;103921.56;5126517;27;20512;-69
2021/12/18 09:14:52;;;;;;;4.85;2.25;;;;;;;7.47;83.46;103918.00;5126911;27;20046;-67
2021/12/18 09:17:18;;;;;;;3.90;2.30;;;;;;;7.48;83.46;103916.28;5132355;27;42331;-68
2021/12/18 09:19:44;;;;;;;5.95;2.45;;;;;;;7.48;83.56;103918.91;5134127;27;20032;-69
2021/12/18 09:22:10;;;;;;;5.38;2.25;;;;;;;7.48;83.72;103917.16;5123118;27;20039;-67
2021/12/18 09:24:38;;;;;;;4.32;2.22;;;;;;;7.47;83.15;103920.63;5131549;27;20039;-69
2021/12/18 09:27:06;;;;;;;4.45;2.22;;;;;;;7.42;83.08;103923.09;5132678;27;20050;-66
2021/12/18 09:29:32;;;;;;;4.90;2.38;;;;;;;7.42;83.42;103920.47;5134419;27;20476;-68
2021/12/18 09:31:58;;;;;;;4.40;2.38;;;;;;;7.47;83.52;103920.63;5115754;27;20051;-69
2021/12/18 09:34:26;;;;;;;3.67;1.92;;;;;;;7.52;83.09;103912.88;5116878;27;20044;-68
2021/12/18 09:36:52;;;;;;;6.07;2.20;;;;;;;7.51;83.05;103918.97;5134400;27;20056;-67
2021/12/18 09:39:18;;;;;;;3.78;1.70;;;;;;;7.53;83.07;103922.53;5135900;27;20028;-67
2021/12/18 09:41:48;;;;;;;3.75;1.70;;;;;;;7.55;82.54;103920.88;5136310;27;20039;-67
2021/12/18 09:44:20;;;;;;;3.25;1.60;;;;;;;7.53;82.46;103915.53;5136510;27;20084;-66
2021/12/18 09:46:45;;;;;;;5.78;1.83;;;;;;;7.55;82.41;103924.38;5126701;27;20039;-69
2021/12/18 09:49:11;;;;;;;3.25;1.65;;;;;;;7.55;82.13;103920.88;5133254;27;43351;-66
2021/12/18 09:51:37;;;;;;;3.22;1.75;;;;;;;7.53;82.25;103915.53;5136178;27;20115;-66
2021/12/18 09:54:03;;;;;;;3.30;1.63;;;;;;;7.55;82.37;103918.25;5136207;27;20039;-68
2021/12/18 09:56:28;;;;;;;4.00;2.00;;;;;;;7.55;82.55;103913.00;5136135;27;20028;-67
2021/12/18 09:58:54;;;;;;;3.25;1.60;;;;;;;7.53;82.50;103912.91;5135256;27;36364;-66
2021/12/18 10:01:19;;;;;;;4.13;1.85;;;;;;;7.57;82.30;103917.44;5123116;27;20059;-68
2021/12/18 10:03:58;;;;;;;3.72;1.67;;;;;;;7.57;82.58;103914.81;5116048;28;20477;-66
2021/12/18 10:06:48;;;;;;;3.10;1.38;;;;;;;7.58;82.41;103908.72;5122946;27;20039;-68
2021/12/18 10:09:16;;;;;;;3.80;2.03;;;;;;;7.58;82.10;103905.22;5135558;27;20114;-67
2021/12/18 10:11:58;;;;;;;3.50;1.60;;;;;;;7.58;82.23;103899.97;5136306;27;20035;-68
2021/12/18 10:15:04;;;;;;;4.43;1.90;;;;;;;7.57;82.45;103896.44;5136425;27;20043;-69
2021/12/18 10:17:38;;;;;;;4.45;2.28;;;;;;;7.58;82.24;103898.22;5135816;27;20043;-69
2021/12/18 10:20:09;;;;;;;4.47;2.13;;;;;;;7.57;82.17;103893.81;5134159;27;20036;-67
2021/12/18 10:22:42;;;;;;;4.15;2.20;;;;;;;7.55;82.02;103889.34;5135049;27;43267;-69
2021/12/18 10:25:09;;;;;;;6.32;2.35;;;;;;;7.52;82.08;103882.28;5119338;27;20122;-68
2021/12/18 10:27:41;;;;;;;6.93;2.05;;;;;;;7.53;82.27;103889.28;5115439;28;20039;-67
2021/12/18 10:30:20;;;;;;;2.70;1.60;;;;;;;7.53;81.97;103883.16;5135783;27;20044;-68
2021/12/18 10:33:06;;;;;;;3.40;1.58;;;;;;;7.48;81.73;103880.41;5135770;27;20500;-68
2021/12/18 10:35:50;;;;;;;2.30;1.15;;;;;;;7.48;81.37;103890.91;5135685;27;20462;-70
2021/12/18 10:38:47;;;;;;;4.57;1.17;;;;;;;7.48;81.57;103882.16;5135771;27;20437;-69
2021/12/18 10:41:27;;;;;;;2.90;1.30;;;;;;;7.50;81.46;103880.44;5135916;27;20036;-68
2021/12/18 10:44:09;;;;;;;1.38;0.90;;;;;;;7.49;81.65;103887.44;5136026;27;20036;-68
2021/12/18 10:46:42;;;;;;;3.17;1.50;;;;;;;7.53;81.69;103889.28;5135793;27;20119;-68
2021/12/18 10:49:15;;;;;;;2.97;1.42;;;;;;;7.53;81.52;103884.03;5134988;27;20130;-67
2021/12/18 10:51:42;;;;;;;2.67;1.50;;;;;;;7.50;81.28;103880.44;5135133;27;20491;-68
2021/12/18 10:54:22;;;;;;;2.97;1.33;;;;;;;7.45;81.16;103875.94;5135481;27;20118;-67
2021/12/18 10:56:55;;;;;;;2.50;1.50;;;;;;;7.41;81.24;103887.19;5129047;27;20729;-67
2021/12/18 10:59:36;;;;;;;3.17;1.60;;;;;;;7.38;81.19;103880.94;5101729;28;20462;-67
2021/12/18 11:02:11;;;;;;;5.75;2.38;;;;;;;7.33;81.55;103880.81;5118736;28;20536;-68
2021/12/18 11:04:40;;;;;;;3.83;2.05;;;;;;;7.33;81.71;103877.28;5118350;28;20052;-68
2021/12/18 11:07:33;;;;;;;5.45;2.40;;;;;;;7.36;81.68;103880.91;5118267;28;20024;-68
2021/12/18 11:10:43;;;;;;;3.45;2.00;;;;;;;7.36;81.48;103875.66;5136728;27;20077;-67
2021/12/18 11:15:55;;;;;;;3.58;2.10;;;;;;;7.30;81.98;103880.69;5139009;27;20044;-67
2021/12/18 11:18:21;;;;;;;3.78;2.25;;;;;;;7.31;82.17;103882.47;5138714;27;20028;-69
2021/12/18 11:20:52;;;;;;;4.68;2.63;;;;;;;7.35;82.32;103881.75;5100335;27;20040;-69
2021/12/18 11:23:41;;;;;;;6.53;3.70;;;;;;;7.35;82.29;103875.59;5120547;27;20051;-68
2021/12/18 11:26:13;;;;;;;8.65;4.38;;;;;;;7.32;82.03;103876.41;5138627;27;20477;-68
2021/12/18 11:28:48;;;;;;;4.70;3.15;;;;;;;7.29;81.80;103873.66;5137325;27;20048;-67
2021/12/18 11:31:14;;;;;;;4.47;2.88;;;;;;;7.23;81.64;103865.59;5138378;27;20054;-68
2021/12/18 11:33:40;;;;;;;3.50;2.25;;;;;;;7.19;81.78;103871.59;5120154;27;20119;-68
2021/12/18 11:36:08;;;;;;;3.45;2.10;;;;;;;7.16;81.58;103867.13;5138520;27;20527;-68
2021/12/18 11:38:38;;;;;;;3.10;2.00;;;;;;;7.11;81.98;103864.38;5138806;27;20078;-69
2021/12/18 11:41:04;;;;;;;3.47;1.73;;;;;;;7.10;82.07;103859.06;5137828;27;20048;-68
2021/12/18 11:43:38;;;;;;;4.65;1.77;;;;;;;7.10;82.09;103862.56;5135184;27;20046;-65
2021/12/18 11:46:28;;;;;;;2.33;1.55;;;;;;;7.14;82.04;103860.94;5114799;27;20035;-67
2021/12/18 11:49:03;;;;;;;4.20;2.00;;;;;;;7.12;81.67;103863.53;5131883;27;20058;-68
2021/12/18 11:51:30;;;;;;;3.15;2.10;;;;;;;7.07;81.69;103858.97;5134773;27;20167;-66
2021/12/18 11:53:57;;;;;;;4.32;1.75;;;;;;;7.05;82.06;103853.69;5135743;27;20085;-65
2021/12/18 11:56:25;;;;;;;2.30;1.55;;;;;;;7.05;82.08;103863.25;5130114;27;20159;-65
2021/12/18 11:58:52;;;;;;;2.90;1.65;;;;;;;7.04;81.58;103854.53;5136765;27;20389;-66
2021/12/18 12:01:25;;;;;;;2.80;1.70;;;;;;;7.01;82.00;103851.78;5147581;27;20031;-66
2021/12/18 12:03:50;;;;;;;2.40;1.67;;;;;;;7.03;81.13;103844.88;5125374;27;20119;-66
2021/12/18 12:06:21;;;;;;;3.92;1.65;;;;;;;7.03;81.63;103850.09;5134445;27;34382;-67
2021/12/18 12:08:51;;;;;;;3.63;2.13;;;;;;;7.03;81.84;103847.47;5135430;27;20047;-66
2021/12/18 12:11:27;;;;;;;2.53;1.52;;;;;;;7.06;81.24;103846.69;5127381;27;20036;-64
2021/12/18 12:14:13;;;;;;;2.65;1.38;;;;;;;7.02;81.04;103845.69;5132996;27;20044;-66
2021/12/18 12:19:24;;;;;;;4.03;2.65;;;;;;;6.92;81.31;103847.13;5135124;27;20559;-66
2021/12/18 12:21:56;;;;;;;4.40;2.83;;;;;;;6.89;81.39;103846.13;5133895;27;20039;-65